Time;durP1;ratioP1;P1;durP2;ratioP2;P2;SDS_P1;SDS_P2;PMS_P1;PMS_P2;Temp;Humidity;BMP_temperature;BMP_pressure;BME280_temperature;BME280_humidity;BME280_pressure;Samples;Min_cycle;Max_cycle;Signal;HPM_P1;HPM_P2
2022/07/07 00:16:49;;;;;;;19.15;15.60;;;;;;;17.37;95.47;96714.78;4987177;28;20559;-70
2022/07/07 00:19:16;;;;;;;21.38;16.90;;;;;;;17.69;95.61;96765.53;4988538;28;20101;-70
2022/07/07 00:21:43;;;;;;;19.48;16.98;;;;;;;17.63;95.73;96767.22;4988619;28;20058;-70
2022/07/07 02:05:19;;;;;;;15.98;14.30;;;;;;;15.87;99.03;96651.88;4984515;28;20246;-69
2022/07/07 02:07:47;;;;;;;17.40;14.95;;;;;;;16.49;99.86;96767.06;4986599;28;20056;-69
2022/07/07 06:10:15;;;;;;;10.23;8.93;;;;;;;25.43;55.11;96744.31;4982620;28;20449;-69
2022/07/07 06:12:42;;;;;;;9.98;9.20;;;;;;;25.88;54.23;96797.28;5001176;28;20507;-81
2022/07/07 06:15:10;;;;;;;10.10;9.27;;;;;;;25.66;54.28;96768.34;5005335;28;20054;-70
2022/07/07 06:17:37;;;;;;;10.75;9.75;;;;;;;25.72;54.66;96729.56;4993601;28;20859;-68
2022/07/07 06:20:24;;;;;;;10.80;9.70;;;;;;;26.27;52.22;96717.50;4985954;28;20539;-77
2022/07/07 06:22:51;;;;;;;9.38;8.75;;;;;;;26.90;51.33;96793.09;4968465;28;20061;-72
2022/07/07 06:25:18;;;;;;;10.52;9.68;;;;;;;27.22;50.56;96795.03;4968198;28;20081;-70
2022/07/07 06:27:44;;;;;;;9.77;8.98;;;;;;;26.64;49.57;96664.09;4985520;28;20903;-67
2022/07/07 06:30:11;;;;;;;9.32;8.73;;;;;;;27.38;48.90;96732.03;4985893;28;20536;-73
2022/07/07 06:32:38;;;;;;;9.50;8.75;;;;;;;26.20;48.82;96526.81;4985882;28;20077;-73
2022/07/07 06:35:06;;;;;;;8.77;8.10;;;;;;;26.95;47.62;96638.88;4985903;28;20058;-70
2022/07/07 06:37:33;;;;;;;8.93;8.13;;;;;;;27.75;47.28;96773.09;4985644;28;20054;-73
2022/07/07 06:40:00;;;;;;;9.75;8.85;;;;;;;27.45;48.29;96737.34;4983836;28;20073;-74
2022/07/07 06:42:27;;;;;;;9.05;8.25;;;;;;;27.74;47.80;96771.50;4980745;28;20058;-71
2022/07/07 06:44:54;;;;;;;8.65;7.95;;;;;;;27.74;47.50;96731.63;4985191;28;20066;-67
2022/07/07 06:47:36;;;;;;;;;;;;;;;28.11;46.16;96769.06;4986106;28;20531;-67
2022/07/07 07:48:38;;;;;;;9.57;8.70;;;;;;;27.73;43.28;96650.38;4977945;28;20042;-68
2022/07/07 07:52:07;;;;;;;9.38;8.48;;;;;;;29.28;42.86;96755.22;4970685;28;20092;-71
2022/07/07 07:59:23;;;;;;;9.10;8.30;;;;;;;29.48;43.20;96755.19;4971922;28;20058;-70
2022/07/07 08:10:54;;;;;;;9.38;8.77;;;;;;;29.95;41.63;96786.06;4873890;28;20315;-75
2022/07/07 08:14:52;;;;;;;10.93;10.02;;;;;;;26.19;40.57;96150.44;4900988;29;20506;-76
2022/07/07 08:21:47;;;;;;;8.77;8.27;;;;;;;28.15;42.62;96681.34;4986265;28;20547;-72
2022/07/07 08:25:29;;;;;;;;;;;;;;;;;;;;;
2022/07/07 08:36:40;;;;;;;8.27;7.63;;;;;;;27.58;47.97;96760.63;4846786;29;20075;-74
2022/07/07 08:39:41;;;;;;;;;;;;;;;;;;;;;
2022/07/07 10:03:20;;;;;;;7.22;6.78;;;;;;;29.16;42.45;96760.03;4979771;28;20476;-71
2022/07/07 10:06:00;;;;;;;6.30;6.00;;;;;;;28.99;42.82;96755.34;4974459;28;20065;-69
2022/07/07 10:09:33;;;;;;;6.50;6.20;;;;;;;29.08;42.74;96758.09;4967044;28;20114;-70
2022/07/07 10:12:36;;;;;;;6.93;6.45;;;;;;;29.23;42.27;96758.78;4966976;28;20571;-69
2022/07/07 10:15:27;;;;;;;9.73;8.00;;;;;;;29.26;46.90;96700.72;4832131;29;20080;-70
2022/07/07 10:29:23;;;;;;;8.27;7.70;;;;;;;30.29;42.63;96745.06;4978147;28;20592;-68
2022/07/07 10:32:38;;;;;;;;;;;;;;;;;;;;;
2022/07/07 10:40:25;;;;;;;;;;;;;;;;;;;;;
2022/07/07 11:41:51;;;;;;;7.97;7.38;;;;;;;28.88;42.28;96658.25;4976705;28;20759;-76
2022/07/07 11:44:41;;;;;;;7.40;6.93;;;;;;;28.51;43.98;96708.56;4984115;28;20054;-78
2022/07/07 11:47:12;;;;;;;7.57;7.07;;;;;;;28.40;44.25;96709.16;4984550;28;20072;-72
2022/07/07 11:49:40;;;;;;;7.40;6.93;;;;;;;28.04;43.50;96607.88;4984536;28;20061;-74
2022/07/07 11:52:16;;;;;;;9.05;8.25;;;;;;;28.48;43.31;96704.66;4983995;28;20065;-69
2022/07/07 11:54:47;;;;;;;7.75;7.20;;;;;;;27.94;44.71;96711.84;4988848;28;20077;-68
2022/07/07 11:57:37;;;;;;;8.38;7.68;;;;;;;27.42;44.98;96629.41;4986828;28;20061;-70
2022/07/07 12:00:18;;;;;;;7.57;7.13;;;;;;;27.77;44.73;96704.25;4988414;28;20117;-70
2022/07/07 12:02:48;;;;;;;8.18;7.32;;;;;;;27.80;44.71;96700.44;4984226;28;20061;-71
2022/07/07 12:05:27;;;;;;;7.88;7.28;;;;;;;27.01;45.07;96531.72;4989138;28;20066;-71
2022/07/07 12:08:06;;;;;;;7.80;6.93;;;;;;;28.43;43.49;96701.69;4986105;28;20058;-69
2022/07/07 14:30:14;;;;;;;8.70;7.25;;;;;;;27.78;47.87;96686.69;4964508;28;20061;-68
2022/07/07 14:33:25;;;;;;;7.50;6.90;;;;;;;25.97;48.55;96437.53;4966506;28;20065;-66
2022/07/07 14:35:53;;;;;;;8.45;7.63;;;;;;;27.25;49.40;96694.50;4976801;28;20086;-67
2022/07/07 14:41:43;;;;;;;;;;;;;;;26.91;51.57;96686.63;4929802;29;20077;-69
2022/07/07 14:44:44;;;;;;;7.75;7.25;;;;;;;27.06;51.70;96698.81;4985170;28;19926;-66
2022/07/07 14:47:20;;;;;;;8.32;6.00;;;;;;;25.27;49.82;96373.94;4951736;28;20058;-72
2022/07/07 14:53:09;;;;;;;6.68;6.28;;;;;;;26.71;52.20;96695.75;4983444;28;19976;-71
2022/07/07 14:55:36;;;;;;;6.78;6.38;;;;;;;26.46;53.58;96709.69;4985532;28;20057;-73
2022/07/07 14:58:16;;;;;;;7.60;7.00;;;;;;;26.58;53.68;96698.06;4986221;28;20062;-72
2022/07/07 15:01:44;;;;;;;7.25;6.75;;;;;;;26.44;54.92;96706.53;4970726;28;20056;-72
2022/07/07 15:40:38;;;;;;;7.28;6.60;;;;;;;25.52;58.00;96713.06;4980203;28;20463;-70
2022/07/07 15:47:38;;;;;;;6.90;6.40;;;;;;;25.11;58.59;96725.88;4985026;28;20113;-74
2022/07/07 15:54:41;;;;;;;7.75;7.05;;;;;;;24.71;59.17;96682.75;4849161;29;20690;-69
2022/07/07 18:02:58;;;;;;;8.00;6.68;;;;;;;23.73;61.68;96737.81;4985853;28;20320;-75
2022/07/07 18:05:25;;;;;;;;;;;;;;;23.76;62.17;96782.13;4987531;28;20058;-68
2022/07/07 18:07:52;;;;;;;13.90;8.40;;;;;;;23.20;61.83;96676.88;4986909;28;19932;-72
2022/07/07 18:10:18;;;;;;;14.50;9.55;;;;;;;24.04;61.27;96789.56;4986396;28;20058;-73
2022/07/07 18:12:45;;;;;;;7.03;6.43;;;;;;;24.08;60.72;96804.34;4986837;28;20061;-72
2022/07/07 18:15:12;;;;;;;7.15;6.22;;;;;;;23.09;59.72;96639.75;4986536;28;20058;-68
2022/07/07 18:17:39;;;;;;;14.20;9.68;;;;;;;24.30;58.25;96788.06;4968917;28;20073;-71
2022/07/07 18:20:06;;;;;;;8.48;7.60;;;;;;;24.05;57.48;96754.34;4968761;28;20050;-71
2022/07/07 18:22:33;;;;;;;7.57;6.97;;;;;;;23.88;58.07;96755.81;4986410;28;20065;-67
2022/07/07 18:25:00;;;;;;;6.88;6.22;;;;;;;23.33;60.34;96697.41;4985931;28;20081;-72
2022/07/07 18:27:27;;;;;;;6.88;6.18;;;;;;;22.53;60.76;96616.44;4986240;28;20061;-67
2022/07/07 18:29:54;;;;;;;6.85;6.18;;;;;;;23.59;61.87;96789.28;4968754;28;20066;-71
2022/07/07 18:32:28;;;;;;;15.07;9.85;;;;;;;22.49;62.24;96628.63;4986519;28;20551;-67
2022/07/07 18:34:54;;;;;;;12.30;8.65;;;;;;;23.25;63.60;96786.50;4985583;28;20525;-68
2022/07/07 18:37:21;;;;;;;17.42;11.60;;;;;;;23.42;63.92;96765.28;4952563;28;20061;-68
2022/07/07 18:39:48;;;;;;;9.02;8.10;;;;;;;22.91;63.94;96704.59;4985696;28;20517;-67
2022/07/07 18:42:14;;;;;;;15.15;10.52;;;;;;;22.05;63.67;96570.56;4985808;28;20484;-69
2022/07/07 18:44:42;;;;;;;8.45;7.20;;;;;;;23.36;63.32;96776.38;4968684;28;20062;-72
2022/07/07 18:47:09;;;;;;;7.97;5.85;;;;;;;23.76;62.77;96816.09;4985625;28;20058;-69
2022/07/07 18:49:35;;;;;;;7.35;6.53;;;;;;;23.83;62.12;96816.63;4985661;28;20061;-72
2022/07/07 18:52:02;;;;;;;8.63;6.35;;;;;;;23.71;62.93;96825.97;4985826;28;20058;-71
2022/07/07 18:54:30;;;;;;;13.38;9.13;;;;;;;23.35;62.76;96759.88;4968135;28;20444;-68
2022/07/07 18:56:57;;;;;;;9.82;8.18;;;;;;;22.96;63.44;96730.25;4985391;28;20054;-71
2022/07/07 18:59:24;;;;;;;6.28;5.68;;;;;;;22.30;63.34;96688.22;4985788;28;20070;-71
2022/07/07 19:01:52;;;;;;;7.10;6.50;;;;;;;23.20;64.71;96840.78;4985158;28;20062;-72
2022/07/07 19:04:19;;;;;;;10.35;9.20;;;;;;;22.08;65.42;96701.47;4971580;28;20062;-69
2022/07/07 19:06:48;;;;;;;6.82;6.30;;;;;;;22.80;67.40;96834.13;4949841;28;20098;-70
2022/07/07 19:09:16;;;;;;;7.20;6.50;;;;;;;21.43;67.85;96624.25;4965974;28;20063;-72
2022/07/07 19:11:43;;;;;;;6.72;6.15;;;;;;;22.87;67.52;96834.69;4965842;28;20063;-67
2022/07/07 19:14:12;;;;;;;7.05;6.53;;;;;;;22.48;67.15;96761.00;4966078;28;20073;-72
2022/07/07 19:16:40;;;;;;;7.07;6.43;;;;;;;22.08;66.36;96722.00;4966342;28;20078;-68
2022/07/07 19:19:09;;;;;;;5.82;5.43;;;;;;;22.74;66.67;96833.13;4948748;28;20145;-71
2022/07/07 19:21:40;;;;;;;6.47;5.97;;;;;;;22.31;65.51;96792.19;4948674;28;20162;-71
2022/07/07 19:24:08;;;;;;;5.63;5.13;;;;;;;22.85;65.43;96853.34;4965991;28;20058;-71
2022/07/07 19:26:36;;;;;;;5.47;5.07;;;;;;;21.31;65.51;96608.91;4966094;28;20090;-67
2022/07/07 19:29:05;;;;;;;6.50;6.00;;;;;;;22.87;67.20;96856.50;4966272;28;20055;-71
2022/07/07 19:31:32;;;;;;;6.65;6.05;;;;;;;22.88;68.27;96858.88;4965857;28;20059;-67
2022/07/07 19:34:00;;;;;;;6.82;5.68;;;;;;;22.86;68.36;96860.56;4965943;28;20059;-67
2022/07/07 19:36:27;;;;;;;6.50;5.90;;;;;;;22.88;68.46;96909.72;4965342;28;20054;-72
2022/07/07 19:38:55;;;;;;;5.72;5.32;;;;;;;22.54;68.37;96799.50;4966046;28;20620;-67
2022/07/07 19:41:22;;;;;;;7.43;5.88;;;;;;;21.36;68.56;96619.63;4965510;28;20058;-68
2022/07/07 19:43:49;;;;;;;6.38;5.80;;;;;;;22.77;68.64;96846.34;4965552;28;20054;-72
2022/07/07 19:46:17;;;;;;;6.20;5.70;;;;;;;22.53;68.37;96797.13;4965503;28;20070;-72
2022/07/07 19:48:44;;;;;;;7.95;7.13;;;;;;;20.96;69.46;96608.00;4965995;28;20098;-67
2022/07/07 19:51:11;;;;;;;6.40;5.90;;;;;;;22.66;69.54;96851.56;4965582;28;20058;-71
2022/07/07 19:53:38;;;;;;;6.85;6.25;;;;;;;21.80;70.04;96728.56;4966179;28;20055;-68
2022/07/07 19:56:05;;;;;;;6.75;6.25;;;;;;;21.41;70.41;96666.19;4961029;28;20063;-72
2022/07/07 19:58:32;;;;;;;6.93;6.40;;;;;;;22.53;70.84;96859.25;4965807;28;20050;-71
2022/07/07 20:00:59;;;;;;;8.23;6.57;;;;;;;22.50;70.16;96866.56;4948320;28;20110;-68
2022/07/07 20:03:27;;;;;;;7.63;6.27;;;;;;;22.09;70.21;96796.94;4780085;28;5001366;-72
2022/07/07 20:05:54;;;;;;;6.30;5.72;;;;;;;22.53;69.80;96854.41;4976213;28;20141;-67
2022/07/07 20:08:28;;;;;;;7.82;7.13;;;;;;;22.08;70.21;96803.81;4984908;28;20066;-71
2022/07/07 20:10:55;;;;;;;7.35;6.32;;;;;;;22.35;70.22;96857.78;4984888;28;20054;-68
2022/07/07 20:13:22;;;;;;;6.05;5.25;;;;;;;21.90;70.58;96806.41;4978703;28;20069;-68
2022/07/07 20:15:49;;;;;;;5.85;5.35;;;;;;;21.84;72.52;96866.66;4969197;28;20089;-68
2022/07/07 20:18:36;;;;;;;7.32;6.75;;;;;;;20.18;71.69;96579.75;4954933;28;20054;-68
2022/07/07 20:21:07;;;;;;;8.50;7.53;;;;;;;21.95;71.90;96859.47;4952186;28;20113;-73
2022/07/07 20:23:33;;;;;;;8.10;7.10;;;;;;;20.72;71.21;96665.03;4951855;28;20058;-68
2022/07/07 20:26:02;;;;;;;6.88;6.20;;;;;;;22.10;71.48;96866.22;4889895;28;20459;-73
2022/07/07 20:28:29;;;;;;;6.50;5.90;;;;;;;22.14;70.50;96861.28;4889803;28;20060;-72
2022/07/07 20:30:57;;;;;;;6.07;5.47;;;;;;;22.16;70.45;96864.44;4889879;28;20092;-70
2022/07/07 20:33:24;;;;;;;5.97;5.38;;;;;;;21.97;69.95;96811.81;4953937;28;20617;-72
2022/07/07 20:35:50;;;;;;;6.35;5.75;;;;;;;22.10;70.39;96866.22;4889705;28;20504;-72
2022/07/07 20:38:17;;;;;;;6.20;5.70;;;;;;;21.78;70.50;96810.00;4889997;28;20060;-71
2022/07/07 20:40:44;;;;;;;5.68;5.22;;;;;;;21.72;67.98;96828.69;4889495;29;20063;-71
2022/07/07 20:43:12;;;;;;;6.68;6.05;;;;;;;20.60;67.96;96660.13;4889454;28;20064;-67
2022/07/07 20:45:38;;;;;;;6.10;5.50;;;;;;;21.34;68.02;96773.50;4892073;28;20526;-72
2022/07/07 20:48:05;;;;;;;6.97;5.88;;;;;;;21.83;68.41;96862.28;4908447;28;20228;-72
2022/07/07 20:50:52;;;;;;;5.95;5.32;;;;;;;21.88;68.12;96865.31;4908077;29;20968;-67
2022/07/07 20:53:19;;;;;;;6.93;5.82;;;;;;;21.96;68.53;96866.69;4908447;29;20522;-71
2022/07/07 20:59:32;;;;;;;6.25;5.75;;;;;;;22.00;68.00;96872.97;4946444;29;20058;-69
2022/07/07 21:02:09;;;;;;;7.00;6.40;;;;;;;21.89;68.29;96871.75;4926262;29;20136;-68
2022/07/07 21:04:40;;;;;;;5.97;5.35;;;;;;;21.78;68.74;96874.88;4970113;28;20061;-68
2022/07/07 21:07:09;;;;;;;6.80;6.18;;;;;;;21.71;69.19;96877.09;5007481;28;20495;-73
2022/07/07 21:09:41;;;;;;;7.05;5.60;;;;;;;21.59;69.88;96892.72;5007300;28;20060;-72
2022/07/07 21:12:23;;;;;;;6.70;5.97;;;;;;;21.75;70.00;96889.88;4978338;28;20107;-68
2022/07/07 21:39:59;;;;;;;6.97;5.88;;;;;;;21.11;75.11;96926.66;5005470;28;20060;-70
2022/07/07 21:42:26;;;;;;;7.57;5.32;;;;;;;20.69;74.33;96868.59;5006991;28;20065;-73
2022/07/07 22:51:11;;;;;;;12.20;7.65;;;;;;;19.64;85.93;96966.59;4986920;28;20050;-73
2022/07/07 22:57:10;;;;;;;7.70;6.25;;;;;;;19.14;85.36;96904.94;4977636;28;20540;-70
